sensor_id;sensor_type;location;lat;lon;timestamp;pressure;altitude;pressure_sealevel;temperature;humidity
55994;BME280;67425;52.126;20.638;2023-10-31T00:01:45;57842.41;;;-144.78;100.00
55994;BME280;67425;52.126;20.638;2023-10-31T00:04:11;57817.47;;;-144.78;100.00
55994;BME280;67425;52.126;20.638;2023-10-31T00:06:36;57823.72;;;-144.78;100.00
55994;BME280;67425;52.126;20.638;2023-10-31T00:09:01;57840.34;;;-144.78;100.00
55994;BME280;67425;52.126;20.638;2023-10-31T00:11:27;57829.94;;;-144.78;100.00
55994;BME280;67425;52.126;20.638;2023-10-31T00:13:52;57836.19;;;-144.78;100.00
55994;BME280;67425;52.126;20.638;2023-10-31T00:16:17;57823.72;;;-144.78;100.00
55994;BME280;67425;52.126;20.638;2023-10-31T00:18:43;57865.25;;;-144.78;100.00
55994;BME280;67425;52.126;20.638;2023-10-31T00:21:08;57848.63;;;-144.78;100.00
55994;BME280;67425;52.126;20.638;2023-10-31T00:23:33;57844.47;;;-144.78;100.00
55994;BME280;67425;52.126;20.638;2023-10-31T00:25:59;57846.56;;;-144.78;100.00
55994;BME280;67425;52.126;20.638;2023-10-31T00:28:24;57848.63;;;-144.78;100.00
55994;BME280;67425;52.126;20.638;2023-10-31T00:30:49;57827.88;;;-144.78;100.00
55994;BME280;67425;52.126;20.638;2023-10-31T00:33:15;57842.41;;;-144.78;100.00
55994;BME280;67425;52.126;20.638;2023-10-31T00:35:40;57842.41;;;-144.78;100.00
55994;BME280;67425;52.126;20.638;2023-10-31T00:38:05;57869.41;;;-144.78;100.00
55994;BME280;67425;52.126;20.638;2023-10-31T00:40:31;57848.63;;;-144.78;100.00
55994;BME280;67425;52.126;20.638;2023-10-31T00:42:56;57854.88;;;-144.78;100.00
55994;BME280;67425;52.126;20.638;2023-10-31T00:45:23;57846.56;;;-144.78;100.00
55994;BME280;67425;52.126;20.638;2023-10-31T00:47:48;57827.88;;;-144.78;100.00
55994;BME280;67425;52.126;20.638;2023-10-31T00:50:14;57859.03;;;-144.78;100.00
55994;BME280;67425;52.126;20.638;2023-10-31T00:52:39;57817.47;;;-144.78;100.00
55994;BME280;67425;52.126;20.638;2023-10-31T00:55:05;57871.50;;;-144.78;100.00
55994;BME280;67425;52.126;20.638;2023-10-31T00:57:30;57834.09;;;-144.78;100.00
55994;BME280;67425;52.126;20.638;2023-10-31T00:59:56;57848.63;;;-144.78;100.00
55994;BME280;67425;52.126;20.638;2023-10-31T01:02:21;57844.47;;;-144.78;100.00
55994;BME280;67425;52.126;20.638;2023-10-31T01:04:46;57836.19;;;-144.78;100.00
55994;BME280;67425;52.126;20.638;2023-10-31T01:07:11;57838.25;;;-144.78;100.00
55994;BME280;67425;52.126;20.638;2023-10-31T01:09:38;57844.47;;;-144.78;100.00
55994;BME280;67425;52.126;20.638;2023-10-31T01:12:04;57846.56;;;-144.78;100.00
55994;BME280;67425;52.126;20.638;2023-10-31T01:14:30;57846.56;;;-144.78;100.00
55994;BME280;67425;52.126;20.638;2023-10-31T01:16:55;57846.56;;;-144.78;100.00
55994;BME280;67425;52.126;20.638;2023-10-31T01:19:20;57846.56;;;-144.78;100.00
55994;BME280;67425;52.126;20.638;2023-10-31T01:21:46;57840.34;;;-144.78;100.00
55994;BME280;67425;52.126;20.638;2023-10-31T01:24:11;57840.34;;;-144.78;100.00
55994;BME280;67425;52.126;20.638;2023-10-31T01:26:37;57836.19;;;-144.78;100.00
55994;BME280;67425;52.126;20.638;2023-10-31T01:29:02;57842.41;;;-144.78;100.00
55994;BME280;67425;52.126;20.638;2023-10-31T01:31:27;57840.34;;;-144.78;100.00
55994;BME280;67425;52.126;20.638;2023-10-31T01:33:53;57825.78;;;-144.78;100.00
55994;BME280;67425;52.126;20.638;2023-10-31T01:36:18;57827.88;;;-144.78;100.00
55994;BME280;67425;52.126;20.638;2023-10-31T01:38:44;57848.63;;;-144.78;100.00
55994;BME280;67425;52.126;20.638;2023-10-31T01:41:11;57832.03;;;-144.78;100.00
55994;BME280;67425;52.126;20.638;2023-10-31T01:43:37;57807.09;;;-144.78;100.00
55994;BME280;67425;52.126;20.638;2023-10-31T01:46:03;57867.34;;;-144.78;100.00
55994;BME280;67425;52.126;20.638;2023-10-31T01:48:30;57815.41;;;-144.78;100.00
55994;BME280;67425;52.126;20.638;2023-10-31T01:50:57;57859.03;;;-144.78;100.00
55994;BME280;67425;52.126;20.638;2023-10-31T01:53:24;57823.72;;;-144.78;100.00
55994;BME280;67425;52.126;20.638;2023-10-31T01:55:52;57852.78;;;-144.78;100.00
55994;BME280;67425;52.126;20.638;2023-10-31T01:58:19;57821.63;;;-144.78;100.00
55994;BME280;67425;52.126;20.638;2023-10-31T02:00:46;57852.78;;;-144.78;100.00
55994;BME280;67425;52.126;20.638;2023-10-31T02:03:12;57861.09;;;-144.78;100.00
55994;BME280;67425;52.126;20.638;2023-10-31T02:05:38;57846.56;;;-144.78;100.00
55994;BME280;67425;52.126;20.638;2023-10-31T02:08:04;57856.94;;;-144.78;100.00
55994;BME280;67425;52.126;20.638;2023-10-31T02:10:30;57867.34;;;-144.78;100.00
55994;BME280;67425;52.126;20.638;2023-10-31T02:12:55;57840.34;;;-144.78;100.00
55994;BME280;67425;52.126;20.638;2023-10-31T02:15:21;57811.25;;;-144.78;100.00
55994;BME280;67425;52.126;20.638;2023-10-31T02:17:46;57846.56;;;-144.78;100.00
55994;BME280;67425;52.126;20.638;2023-10-31T02:20:11;57817.47;;;-144.78;100.00
55994;BME280;67425;52.126;20.638;2023-10-31T02:22:37;57844.47;;;-144.78;100.00
55994;BME280;67425;52.126;20.638;2023-10-31T02:25:02;57823.72;;;-144.78;100.00
55994;BME280;67425;52.126;20.638;2023-10-31T02:27:28;57836.19;;;-144.78;100.00
55994;BME280;67425;52.126;20.638;2023-10-31T02:29:53;57834.09;;;-144.78;100.00
55994;BME280;67425;52.126;20.638;2023-10-31T02:32:18;57840.34;;;-144.78;100.00
55994;BME280;67425;52.126;20.638;2023-10-31T02:34:45;57834.09;;;-144.78;100.00
55994;BME280;67425;52.126;20.638;2023-10-31T02:37:11;57859.03;;;-144.78;100.00
55994;BME280;67425;52.126;20.638;2023-10-31T02:39:37;57842.41;;;-144.78;100.00
55994;BME280;67425;52.126;20.638;2023-10-31T02:42:02;57825.78;;;-144.78;100.00
55994;BME280;67425;52.126;20.638;2023-10-31T02:44:28;57846.56;;;-144.78;100.00
55994;BME280;67425;52.126;20.638;2023-10-31T02:46:53;57850.72;;;-144.78;100.00
55994;BME280;67425;52.126;20.638;2023-10-31T02:49:18;57856.94;;;-144.78;100.00
55994;BME280;67425;52.126;20.638;2023-10-31T02:51:44;57850.72;;;-144.78;100.00
55994;BME280;67425;52.126;20.638;2023-10-31T02:54:09;57825.78;;;-144.78;100.00
55994;BME280;67425;52.126;20.638;2023-10-31T02:56:34;57852.78;;;-144.78;100.00
55994;BME280;67425;52.126;20.638;2023-10-31T02:58:59;57825.78;;;-144.78;100.00
55994;BME280;67425;52.126;20.638;2023-10-31T03:01:28;57811.25;;;-144.78;100.00
55994;BME280;67425;52.126;20.638;2023-10-31T03:03:54;57809.19;;;-144.78;100.00
55994;BME280;67425;52.126;20.638;2023-10-31T03:06:19;57844.47;;;-144.78;100.00
55994;BME280;67425;52.126;20.638;2023-10-31T03:08:45;57805.03;;;-144.78;100.00
55994;BME280;67425;52.126;20.638;2023-10-31T03:11:20;57848.63;;;-144.78;100.00
55994;BME280;67425;52.126;20.638;2023-10-31T03:13:46;57817.47;;;-144.78;100.00
55994;BME280;67425;52.126;20.638;2023-10-31T03:16:11;57823.72;;;-144.78;100.00
55994;BME280;67425;52.126;20.638;2023-10-31T03:18:36;57819.56;;;-144.78;100.00
55994;BME280;67425;52.126;20.638;2023-10-31T03:21:02;57794.63;;;-144.78;100.00
55994;BME280;67425;52.126;20.638;2023-10-31T03:23:27;57827.88;;;-144.78;100.00
55994;BME280;67425;52.126;20.638;2023-10-31T03:25:53;57838.25;;;-144.78;100.00
55994;BME280;67425;52.126;20.638;2023-10-31T03:28:19;57805.03;;;-144.78;100.00
55994;BME280;67425;52.126;20.638;2023-10-31T03:30:47;57815.41;;;-144.78;100.00
55994;BME280;67425;52.126;20.638;2023-10-31T03:33:12;57802.94;;;-144.78;100.00
55994;BME280;67425;52.126;20.638;2023-10-31T03:35:38;57817.47;;;-144.78;100.00
55994;BME280;67425;52.126;20.638;2023-10-31T03:38:03;57802.94;;;-144.78;100.00
55994;BME280;67425;52.126;20.638;2023-10-31T03:40:28;57813.34;;;-144.78;100.00
55994;BME280;67425;52.126;20.638;2023-10-31T03:42:54;57823.72;;;-144.78;100.00
55994;BME280;67425;52.126;20.638;2023-10-31T03:45:19;57815.41;;;-144.78;100.00
55994;BME280;67425;52.126;20.638;2023-10-31T03:47:44;57807.09;;;-144.78;100.00
55994;BME280;67425;52.126;20.638;2023-10-31T03:50:10;57786.34;;;-144.78;100.00
55994;BME280;67425;52.126;20.638;2023-10-31T03:52:35;57805.03;;;-144.78;100.00
55994;BME280;67425;52.126;20.638;2023-10-31T03:55:00;57813.34;;;-144.78;100.00
55994;BME280;67425;52.126;20.638;2023-10-31T03:57:26;57813.34;;;-144.78;100.00
55994;BME280;67425;52.126;20.638;2023-10-31T03:59:51;57821.63;;;-144.78;100.00
55994;BME280;67425;52.126;20.638;2023-10-31T04:02:16;57807.09;;;-144.78;100.00
55994;BME280;67425;52.126;20.638;2023-10-31T04:04:42;57796.72;;;-144.78;100.00
55994;BME280;67425;52.126;20.638;2023-10-31T04:07:07;57825.78;;;-144.78;100.00
55994;BME280;67425;52.126;20.638;2023-10-31T04:09:33;57809.19;;;-144.78;100.00
55994;BME280;67425;52.126;20.638;2023-10-31T04:11:58;57802.94;;;-144.78;100.00
55994;BME280;67425;52.126;20.638;2023-10-31T04:14:23;57813.34;;;-144.78;100.00
55994;BME280;67425;52.126;20.638;2023-10-31T04:16:48;57786.34;;;-144.78;100.00
55994;BME280;67425;52.126;20.638;2023-10-31T04:19:14;57815.41;;;-144.78;100.00
55994;BME280;67425;52.126;20.638;2023-10-31T04:21:39;57827.88;;;-144.78;100.00
55994;BME280;67425;52.126;20.638;2023-10-31T04:24:05;57811.25;;;-144.78;100.00
55994;BME280;67425;52.126;20.638;2023-10-31T04:26:30;57809.19;;;-144.78;100.00
55994;BME280;67425;52.126;20.638;2023-10-31T04:28:56;57792.56;;;-144.78;100.00
55994;BME280;67425;52.126;20.638;2023-10-31T04:31:21;57809.19;;;-144.78;100.00
55994;BME280;67425;52.126;20.638;2023-10-31T04:33:46;57805.03;;;-144.78;100.00
55994;BME280;67425;52.126;20.638;2023-10-31T04:36:12;57800.88;;;-144.78;100.00
55994;BME280;67425;52.126;20.638;2023-10-31T04:38:37;57798.78;;;-144.78;100.00
55994;BME280;67425;52.126;20.638;2023-10-31T04:41:05;57792.56;;;-144.78;100.00
55994;BME280;67425;52.126;20.638;2023-10-31T04:43:30;57782.19;;;-144.78;100.00
55994;BME280;67425;52.126;20.638;2023-10-31T04:45:56;57800.88;;;-144.78;100.00
55994;BME280;67425;52.126;20.638;2023-10-31T04:48:21;57780.09;;;-144.78;100.00
55994;BME280;67425;52.126;20.638;2023-10-31T04:50:46;57796.72;;;-144.78;100.00
55994;BME280;67425;52.126;20.638;2023-10-31T04:53:11;57786.34;;;-144.78;100.00
55994;BME280;67425;52.126;20.638;2023-10-31T04:55:37;57805.03;;;-144.78;100.00
55994;BME280;67425;52.126;20.638;2023-10-31T04:58:02;57763.47;;;-144.78;100.00
55994;BME280;67425;52.126;20.638;2023-10-31T05:00:27;57792.56;;;-144.78;100.00
55994;BME280;67425;52.126;20.638;2023-10-31T05:02:53;57784.25;;;-144.78;100.00
55994;BME280;67425;52.126;20.638;2023-10-31T05:05:18;57778.03;;;-144.78;100.00
55994;BME280;67425;52.126;20.638;2023-10-31T05:07:44;57769.72;;;-144.78;100.00
55994;BME280;67425;52.126;20.638;2023-10-31T05:10:10;57767.63;;;-144.78;100.00
55994;BME280;67425;52.126;20.638;2023-10-31T05:12:35;57763.47;;;-144.78;100.00
55994;BME280;67425;52.126;20.638;2023-10-31T05:15:01;57761.41;;;-144.78;100.00
55994;BME280;67425;52.126;20.638;2023-10-31T05:17:28;57780.09;;;-144.78;100.00
55994;BME280;67425;52.126;20.638;2023-10-31T05:19:53;57740.63;;;-144.78;100.00
55994;BME280;67425;52.126;20.638;2023-10-31T05:22:18;57794.63;;;-144.78;100.00
55994;BME280;67425;52.126;20.638;2023-10-31T05:24:43;57788.41;;;-144.78;100.00
55994;BME280;67425;52.126;20.638;2023-10-31T05:27:09;57767.63;;;-144.78;100.00
55994;BME280;67425;52.126;20.638;2023-10-31T05:29:34;57763.47;;;-144.78;100.00
55994;BME280;67425;52.126;20.638;2023-10-31T05:32:01;57769.72;;;-144.78;100.00
55994;BME280;67425;52.126;20.638;2023-10-31T05:34:26;57775.94;;;-144.78;100.00
55994;BME280;67425;52.126;20.638;2023-10-31T05:36:51;57753.09;;;-144.78;100.00
55994;BME280;67425;52.126;20.638;2023-10-31T05:39:17;57780.09;;;-144.78;100.00
55994;BME280;67425;52.126;20.638;2023-10-31T05:41:42;57792.56;;;-144.78;100.00
55994;BME280;67425;52.126;20.638;2023-10-31T05:44:07;57763.47;;;-144.78;100.00
55994;BME280;67425;52.126;20.638;2023-10-31T05:46:40;57759.34;;;-144.78;100.00
55994;BME280;67425;52.126;20.638;2023-10-31T05:49:09;57757.25;;;-144.78;100.00
55994;BME280;67425;52.126;20.638;2023-10-31T05:51:35;57755.19;;;-144.78;100.00
55994;BME280;67425;52.126;20.638;2023-10-31T05:54:01;57780.09;;;-144.78;100.00
55994;BME280;67425;52.126;20.638;2023-10-31T05:56:26;57767.63;;;-144.78;100.00
55994;BME280;67425;52.126;20.638;2023-10-31T05:58:52;57736.50;;;-144.78;100.00
55994;BME280;67425;52.126;20.638;2023-10-31T06:01:17;57744.78;;;-144.78;100.00
55994;BME280;67425;52.126;20.638;2023-10-31T06:03:43;57769.72;;;-144.78;100.00
55994;BME280;67425;52.126;20.638;2023-10-31T06:06:09;57763.47;;;-144.78;100.00
55994;BME280;67425;52.126;20.638;2023-10-31T06:08:35;57748.94;;;-144.78;100.00
55994;BME280;67425;52.126;20.638;2023-10-31T06:11:00;57744.78;;;-144.78;100.00
55994;BME280;67425;52.126;20.638;2023-10-31T06:13:25;57707.41;;;-144.78;100.00
55994;BME280;67425;52.126;20.638;2023-10-31T06:15:53;57767.63;;;-144.78;100.00
55994;BME280;67425;52.126;20.638;2023-10-31T06:18:19;57748.94;;;-144.78;100.00
55994;BME280;67425;52.126;20.638;2023-10-31T06:20:44;57736.50;;;-144.78;100.00
55994;BME280;67425;52.126;20.638;2023-10-31T06:23:09;57751.03;;;-144.78;100.00
55994;BME280;67425;52.126;20.638;2023-10-31T06:25:35;57755.19;;;-144.78;100.00
55994;BME280;67425;52.126;20.638;2023-10-31T06:28:00;57705.34;;;-144.78;100.00
55994;BME280;67425;52.126;20.638;2023-10-31T06:30:25;57736.50;;;-144.78;100.00
55994;BME280;67425;52.126;20.638;2023-10-31T06:32:52;57726.09;;;-144.78;100.00
55994;BME280;67425;52.126;20.638;2023-10-31T06:35:18;57740.63;;;-144.78;100.00
55994;BME280;67425;52.126;20.638;2023-10-31T06:37:43;57732.34;;;-144.78;100.00
55994;BME280;67425;52.126;20.638;2023-10-31T06:40:09;57738.56;;;-144.78;100.00
55994;BME280;67425;52.126;20.638;2023-10-31T06:42:37;57732.34;;;-144.78;100.00
55994;BME280;67425;52.126;20.638;2023-10-31T06:45:03;57732.34;;;-144.78;100.00
55994;BME280;67425;52.126;20.638;2023-10-31T06:47:30;57753.09;;;-144.78;100.00
55994;BME280;67425;52.126;20.638;2023-10-31T06:49:55;57759.34;;;-144.78;100.00
55994;BME280;67425;52.126;20.638;2023-10-31T06:52:21;57730.25;;;-144.78;100.00
55994;BME280;67425;52.126;20.638;2023-10-31T06:54:46;57753.09;;;-144.78;100.00
55994;BME280;67425;52.126;20.638;2023-10-31T06:57:11;57736.50;;;-144.78;100.00
55994;BME280;67425;52.126;20.638;2023-10-31T06:59:37;57711.56;;;-144.78;100.00
55994;BME280;67425;52.126;20.638;2023-10-31T07:02:02;57753.09;;;-144.78;100.00
55994;BME280;67425;52.126;20.638;2023-10-31T07:04:27;57751.03;;;-144.78;100.00
55994;BME280;67425;52.126;20.638;2023-10-31T07:06:53;57740.63;;;-144.78;100.00
55994;BME280;67425;52.126;20.638;2023-10-31T07:09:23;57751.03;;;-144.78;100.00
55994;BME280;67425;52.126;20.638;2023-10-31T07:11:48;57773.88;;;-144.78;100.00
55994;BME280;67425;52.126;20.638;2023-10-31T07:14:14;57759.34;;;-144.78;100.00
55994;BME280;67425;52.126;20.638;2023-10-31T07:16:39;57759.34;;;-144.78;100.00
55994;BME280;67425;52.126;20.638;2023-10-31T07:19:05;57726.09;;;-144.78;100.00
55994;BME280;67425;52.126;20.638;2023-10-31T07:21:30;57744.78;;;-144.78;100.00
55994;BME280;67425;52.126;20.638;2023-10-31T07:23:55;57738.56;;;-144.78;100.00
55994;BME280;67425;52.126;20.638;2023-10-31T07:26:21;57742.72;;;-144.78;100.00
55994;BME280;67425;52.126;20.638;2023-10-31T07:28:47;57738.56;;;-144.78;100.00
55994;BME280;67425;52.126;20.638;2023-10-31T07:31:14;57730.25;;;-144.78;100.00
55994;BME280;67425;52.126;20.638;2023-10-31T07:33:39;57755.19;;;-144.78;100.00
55994;BME280;67425;52.126;20.638;2023-10-31T07:36:04;57761.41;;;-144.78;100.00
55994;BME280;67425;52.126;20.638;2023-10-31T07:38:30;57759.34;;;-144.78;100.00
55994;BME280;67425;52.126;20.638;2023-10-31T07:40:55;57734.41;;;-144.78;100.00
55994;BME280;67425;52.126;20.638;2023-10-31T07:43:21;57744.78;;;-144.78;100.00
55994;BME280;67425;52.126;20.638;2023-10-31T07:45:46;57730.25;;;-144.78;100.00
55994;BME280;67425;52.126;20.638;2023-10-31T07:48:12;57738.56;;;-144.78;100.00
55994;BME280;67425;52.126;20.638;2023-10-31T07:50:37;57732.34;;;-144.78;100.00
55994;BME280;67425;52.126;20.638;2023-10-31T07:53:03;57765.56;;;-144.78;100.00
55994;BME280;67425;52.126;20.638;2023-10-31T07:55:28;57734.41;;;-144.78;100.00
55994;BME280;67425;52.126;20.638;2023-10-31T07:57:53;57717.78;;;-144.78;100.00
55994;BME280;67425;52.126;20.638;2023-10-31T08:00:19;57763.47;;;-144.78;100.00
55994;BME280;67425;52.126;20.638;2023-10-31T08:02:44;57744.78;;;-144.78;100.00
55994;BME280;67425;52.126;20.638;2023-10-31T08:05:10;57753.09;;;-144.78;100.00
55994;BME280;67425;52.126;20.638;2023-10-31T08:07:36;57726.09;;;-144.78;100.00
55994;BME280;67425;52.126;20.638;2023-10-31T08:10:02;57711.56;;;-144.78;100.00
55994;BME280;67425;52.126;20.638;2023-10-31T08:12:28;57748.94;;;-144.78;100.00
55994;BME280;67425;52.126;20.638;2023-10-31T08:14:54;57726.09;;;-144.78;100.00
55994;BME280;67425;52.126;20.638;2023-10-31T08:17:19;57721.94;;;-144.78;100.00
55994;BME280;67425;52.126;20.638;2023-10-31T08:19:45;57719.88;;;-144.78;100.00
55994;BME280;67425;52.126;20.638;2023-10-31T08:22:11;57726.09;;;-144.78;100.00
55994;BME280;67425;52.126;20.638;2023-10-31T08:24:37;57738.56;;;-144.78;100.00
55994;BME280;67425;52.126;20.638;2023-10-31T08:27:04;57736.50;;;-144.78;100.00
55994;BME280;67425;52.126;20.638;2023-10-31T08:29:29;57736.50;;;-144.78;100.00
55994;BME280;67425;52.126;20.638;2023-10-31T08:31:55;57738.56;;;-144.78;100.00
55994;BME280;67425;52.126;20.638;2023-10-31T08:34:20;57715.72;;;-144.78;100.00
55994;BME280;67425;52.126;20.638;2023-10-31T08:36:45;57742.72;;;-144.78;100.00
55994;BME280;67425;52.126;20.638;2023-10-31T08:39:11;57684.56;;;-144.78;100.00
55994;BME280;67425;52.126;20.638;2023-10-31T08:41:36;57713.63;;;-144.78;100.00
55994;BME280;67425;52.126;20.638;2023-10-31T08:44:04;57705.34;;;-144.78;100.00
55994;BME280;67425;52.126;20.638;2023-10-31T08:46:30;57694.94;;;-144.78;100.00
55994;BME280;67425;52.126;20.638;2023-10-31T08:48:55;57734.41;;;-144.78;100.00
55994;BME280;67425;52.126;20.638;2023-10-31T08:51:20;57721.94;;;-144.78;99.73
55994;BME280;67425;52.126;20.638;2023-10-31T08:53:48;57713.63;;;-144.78;98.50
55994;BME280;67425;52.126;20.638;2023-10-31T08:56:13;57705.34;;;-144.78;99.21
55994;BME280;67425;52.126;20.638;2023-10-31T08:58:38;57703.25;;;-144.78;98.94
55994;BME280;67425;52.126;20.638;2023-10-31T09:01:05;57707.41;;;-144.78;98.69
55994;BME280;67425;52.126;20.638;2023-10-31T09:03:30;57713.63;;;-144.78;98.51
55994;BME280;67425;52.126;20.638;2023-10-31T09:05:55;57705.34;;;-144.78;97.87
55994;BME280;67425;52.126;20.638;2023-10-31T09:08:21;57728.19;;;-144.78;97.49
55994;BME280;67425;52.126;20.638;2023-10-31T09:10:47;57713.63;;;-144.78;96.91
55994;BME280;67425;52.126;20.638;2023-10-31T09:13:13;57701.19;;;-144.78;97.83
55994;BME280;67425;52.126;20.638;2023-10-31T09:15:38;57711.56;;;-144.78;97.02
55994;BME280;67425;52.126;20.638;2023-10-31T09:18:04;57717.78;;;-144.78;97.40
55994;BME280;67425;52.126;20.638;2023-10-31T09:20:29;57711.56;;;-144.78;96.99
55994;BME280;67425;52.126;20.638;2023-10-31T09:22:55;57703.25;;;-144.78;96.86
55994;BME280;67425;52.126;20.638;2023-10-31T09:25:21;57713.63;;;-144.78;96.65
55994;BME280;67425;52.126;20.638;2023-10-31T09:27:46;57701.19;;;-144.78;96.87
55994;BME280;67425;52.126;20.638;2023-10-31T09:30:11;57686.63;;;-144.78;95.71
55994;BME280;67425;52.126;20.638;2023-10-31T09:32:37;57717.78;;;-144.78;96.88
55994;BME280;67425;52.126;20.638;2023-10-31T09:35:02;57703.25;;;-144.78;96.49
55994;BME280;67425;52.126;20.638;2023-10-31T09:37:28;57701.19;;;-144.78;96.68
55994;BME280;67425;52.126;20.638;2023-10-31T09:39:53;57715.72;;;-144.78;96.28
55994;BME280;67425;52.126;20.638;2023-10-31T09:42:18;57688.72;;;-144.78;96.16
55994;BME280;67425;52.126;20.638;2023-10-31T09:44:44;57697.03;;;-144.78;96.50
55994;BME280;67425;52.126;20.638;2023-10-31T09:47:09;57713.63;;;-144.78;96.07
55994;BME280;67425;52.126;20.638;2023-10-31T09:49:35;57672.09;;;-144.78;95.88
55994;BME280;67425;52.126;20.638;2023-10-31T09:52:01;57699.09;;;-144.78;95.58
55994;BME280;67425;52.126;20.638;2023-10-31T09:54:26;57711.56;;;-144.78;96.42
55994;BME280;67425;52.126;20.638;2023-10-31T09:56:52;57703.25;;;-144.78;95.65
55994;BME280;67425;52.126;20.638;2023-10-31T09:59:17;57663.78;;;-144.78;95.88
55994;BME280;67425;52.126;20.638;2023-10-31T10:01:43;57701.19;;;-144.78;95.50
55994;BME280;67425;52.126;20.638;2023-10-31T10:04:09;57674.19;;;-144.78;95.50
55994;BME280;67425;52.126;20.638;2023-10-31T10:06:35;57688.72;;;-144.78;95.31
55994;BME280;67425;52.126;20.638;2023-10-31T10:09:00;57659.63;;;-144.78;94.79
55994;BME280;67425;52.126;20.638;2023-10-31T10:11:29;57676.25;;;-144.78;94.00
55994;BME280;67425;52.126;20.638;2023-10-31T10:13:56;57688.72;;;-144.78;93.67
55994;BME280;67425;52.126;20.638;2023-10-31T10:16:31;57672.09;;;-144.78;93.34
55994;BME280;67425;52.126;20.638;2023-10-31T10:19:14;57667.94;;;-144.78;92.87
55994;BME280;67425;52.126;20.638;2023-10-31T10:22:07;57672.09;;;-144.78;93.37
55994;BME280;67425;52.126;20.638;2023-10-31T10:24:32;57665.88;;;-144.78;93.02
55994;BME280;67425;52.126;20.638;2023-10-31T10:26:58;57701.19;;;-144.78;92.97
55994;BME280;67425;52.126;20.638;2023-10-31T10:29:24;57680.41;;;-144.78;93.32
55994;BME280;67425;52.126;20.638;2023-10-31T10:31:51;57694.94;;;-144.78;93.85
55994;BME280;67425;52.126;20.638;2023-10-31T10:34:17;57657.56;;;-144.78;93.59
55994;BME280;67425;52.126;20.638;2023-10-31T10:36:46;57682.50;;;-144.78;95.04
55994;BME280;67425;52.126;20.638;2023-10-31T10:39:17;57707.41;;;-144.78;94.37
55994;BME280;67425;52.126;20.638;2023-10-31T10:41:43;57690.78;;;-144.78;94.74
55994;BME280;67425;52.126;20.638;2023-10-31T10:44:11;57674.19;;;-144.78;94.77
55994;BME280;67425;52.126;20.638;2023-10-31T10:46:39;57667.94;;;-144.78;94.90
55994;BME280;67425;52.126;20.638;2023-10-31T10:49:06;57682.50;;;-144.78;95.13
55994;BME280;67425;52.126;20.638;2023-10-31T10:52:23;57676.25;;;-144.78;95.12
55994;BME280;67425;52.126;20.638;2023-10-31T10:55:00;57676.25;;;-144.78;94.99
55994;BME280;67425;52.126;20.638;2023-10-31T10:57:48;57672.09;;;-144.78;94.96
55994;BME280;67425;52.126;20.638;2023-10-31T11:00:16;57649.25;;;-144.78;94.49
55994;BME280;67425;52.126;20.638;2023-10-31T11:02:45;57684.56;;;-144.78;95.32
55994;BME280;67425;52.126;20.638;2023-10-31T11:05:11;57665.88;;;-144.78;95.18
55994;BME280;67425;52.126;20.638;2023-10-31T11:07:38;57703.25;;;-144.78;95.30
55994;BME280;67425;52.126;20.638;2023-10-31T11:10:04;57665.88;;;-144.78;95.27
55994;BME280;67425;52.126;20.638;2023-10-31T11:12:31;57661.72;;;-144.78;95.43
55994;BME280;67425;52.126;20.638;2023-10-31T11:14:58;57678.34;;;-144.78;95.77
55994;BME280;67425;52.126;20.638;2023-10-31T11:17:33;57672.09;;;-144.78;95.87
55994;BME280;67425;52.126;20.638;2023-10-31T11:20:00;57667.94;;;-144.78;96.32
55994;BME280;67425;52.126;20.638;2023-10-31T11:22:25;57663.78;;;-144.78;96.26
55994;BME280;67425;52.126;20.638;2023-10-31T11:24:51;57697.03;;;-144.78;96.76
55994;BME280;67425;52.126;20.638;2023-10-31T11:27:17;57680.41;;;-144.78;97.23
55994;BME280;67425;52.126;20.638;2023-10-31T11:29:43;57690.78;;;-144.78;98.12
55994;BME280;67425;52.126;20.638;2023-10-31T11:32:10;57692.88;;;-144.78;98.34
55994;BME280;67425;52.126;20.638;2023-10-31T11:34:39;57701.19;;;-144.78;98.96
55994;BME280;67425;52.126;20.638;2023-10-31T11:37:31;57667.94;;;-144.78;98.83
55994;BME280;67425;52.126;20.638;2023-10-31T11:40:17;57682.50;;;-144.78;99.35
55994;BME280;67425;52.126;20.638;2023-10-31T11:42:52;57686.63;;;-144.78;99.11
55994;BME280;67425;52.126;20.638;2023-10-31T11:48:00;57667.94;;;-144.78;99.19
55994;BME280;67425;52.126;20.638;2023-10-31T11:50:26;57688.72;;;-144.78;98.34
55994;BME280;67425;52.126;20.638;2023-10-31T11:53:01;57680.41;;;-144.78;99.09
55994;BME280;67425;52.126;20.638;2023-10-31T11:55:27;57680.41;;;-144.78;98.94
55994;BME280;67425;52.126;20.638;2023-10-31T11:57:53;57688.72;;;-144.78;99.34
55994;BME280;67425;52.126;20.638;2023-10-31T12:00:23;57680.41;;;-144.78;99.76
55994;BME280;67425;52.126;20.638;2023-10-31T12:03:01;57678.34;;;-144.78;98.86
55994;BME280;67425;52.126;20.638;2023-10-31T12:05:27;57699.09;;;-144.78;99.36
55994;BME280;67425;52.126;20.638;2023-10-31T12:07:53;57692.88;;;-144.78;99.29
55994;BME280;67425;52.126;20.638;2023-10-31T12:10:26;57705.34;;;-144.78;99.71
55994;BME280;67425;52.126;20.638;2023-10-31T12:12:58;57709.50;;;-144.78;99.64
55994;BME280;67425;52.126;20.638;2023-10-31T12:15:24;57711.56;;;-144.78;100.00
55994;BME280;67425;52.126;20.638;2023-10-31T12:17:50;57659.63;;;-144.78;100.00
55994;BME280;67425;52.126;20.638;2023-10-31T12:20:15;57688.72;;;-144.78;100.00
55994;BME280;67425;52.126;20.638;2023-10-31T12:22:42;57688.72;;;-144.78;100.00